createdAt,value
2018-08-31T00:02:22.985Z,21.08
2018-08-31T00:05:02.848Z,21.01
2018-08-31T00:07:48.723Z,21.13
2018-08-31T00:11:26.151Z,21.17
2018-08-31T00:13:54.960Z,20.92
2018-08-31T00:16:23.657Z,20.83
2018-08-31T00:18:52.533Z,20.77
2018-08-31T00:21:21.265Z,20.54
2018-08-31T00:24:00.975Z,20.39
2018-08-31T00:26:40.722Z,20.22
2018-08-31T00:29:52.739Z,20.11
2018-08-31T00:33:02.803Z,19.98
2018-08-31T00:36:18.094Z,19.90
2018-08-31T00:41:01.856Z,19.70
2018-08-31T00:43:50.176Z,19.52
2018-08-31T00:46:18.979Z,19.47
2018-08-31T00:48:47.819Z,19.09
2018-08-31T00:51:17.973Z,19.64
2018-08-31T00:53:46.812Z,19.49
2018-08-31T00:56:15.661Z,19.41
2018-08-31T00:58:44.528Z,19.42
2018-08-31T01:01:13.281Z,19.33
2018-08-31T01:03:42.084Z,19.24
2018-08-31T01:06:10.911Z,19.18
2018-08-31T01:08:39.734Z,19.07
2018-08-31T01:11:08.496Z,19.04
2018-08-31T01:13:38.020Z,19.01
2018-08-31T01:16:07.089Z,18.99
2018-08-31T01:18:36.029Z,18.87
2018-08-31T01:21:05.172Z,18.84
2018-08-31T01:23:34.408Z,18.81
2018-08-31T01:26:03.216Z,18.87
2018-08-31T01:28:31.992Z,18.88
2018-08-31T01:31:00.711Z,18.86
2018-08-31T01:33:29.612Z,18.72
2018-08-31T01:35:58.495Z,18.63
2018-08-31T01:38:27.258Z,18.46
2018-08-31T01:40:56.039Z,18.37
2018-08-31T01:43:24.772Z,18.38
2018-08-31T01:45:53.530Z,18.27
2018-08-31T01:48:22.320Z,18.47
2018-08-31T01:50:56.331Z,18.52
2018-08-31T01:53:28.646Z,18.51
2018-08-31T01:55:57.524Z,18.55
2018-08-31T01:58:26.373Z,18.49
2018-08-31T02:00:55.238Z,18.47
2018-08-31T02:03:23.980Z,18.48
2018-08-31T02:05:52.707Z,18.46
2018-08-31T02:08:21.412Z,18.50
2018-08-31T02:10:50.214Z,18.53
2018-08-31T02:13:19.048Z,18.58
2018-08-31T02:15:47.877Z,18.61
2018-08-31T02:18:16.602Z,18.66
2018-08-31T02:21:08.436Z,18.57
2018-08-31T02:23:52.652Z,18.58
2018-08-31T02:29:05.929Z,18.51
2018-08-31T02:31:34.675Z,18.45
2018-08-31T02:34:03.494Z,18.39
2018-08-31T02:36:32.339Z,18.36
2018-08-31T02:39:01.232Z,18.33
2018-08-31T02:41:29.945Z,18.38
2018-08-31T02:43:58.709Z,18.39
2018-08-31T02:46:28.248Z,18.35
2018-08-31T02:48:57.136Z,18.43
2018-08-31T02:51:25.960Z,18.49
2018-08-31T02:53:54.739Z,18.47
2018-08-31T02:56:23.609Z,18.36
2018-08-31T02:58:52.437Z,18.35
2018-08-31T03:01:21.223Z,18.41
2018-08-31T03:03:49.982Z,18.43
2018-08-31T03:06:18.827Z,18.47
2018-08-31T03:08:47.687Z,18.38
2018-08-31T03:11:16.619Z,18.29
2018-08-31T03:13:45.384Z,18.31
2018-08-31T03:16:14.125Z,18.38
2018-08-31T03:18:42.839Z,18.34
2018-08-31T03:21:11.582Z,18.32
2018-08-31T03:23:40.384Z,18.17
2018-08-31T03:26:09.152Z,18.12
2018-08-31T03:28:37.827Z,18.09
2018-08-31T03:31:06.641Z,18.04
2018-08-31T03:33:35.469Z,17.81
2018-08-31T03:36:04.330Z,17.83
2018-08-31T03:38:33.300Z,17.94
2018-08-31T03:41:02.118Z,17.93
2018-08-31T03:43:31.055Z,17.80
2018-08-31T03:45:59.970Z,17.80
2018-08-31T03:48:28.831Z,17.75
2018-08-31T03:50:57.650Z,17.78
2018-08-31T03:53:26.439Z,17.73
2018-08-31T03:55:55.258Z,17.75
2018-08-31T03:58:24.058Z,17.75
2018-08-31T04:00:52.931Z,17.73
2018-08-31T04:03:21.625Z,17.80
2018-08-31T04:05:50.455Z,17.98
2018-08-31T04:08:19.255Z,18.14
2018-08-31T04:10:48.003Z,18.35
2018-08-31T04:13:16.748Z,18.21
2018-08-31T04:15:45.530Z,18.67
2018-08-31T04:18:14.337Z,18.82
2018-08-31T04:20:51.888Z,19.18
2018-08-31T04:23:20.586Z,19.39
2018-08-31T04:25:49.299Z,19.44
2018-08-31T04:28:18.022Z,19.35
2018-08-31T04:30:46.842Z,19.32
2018-08-31T04:33:15.794Z,19.32
2018-08-31T04:35:44.553Z,19.55
2018-08-31T04:38:13.328Z,19.59
2018-08-31T04:40:42.121Z,19.66
2018-08-31T04:43:10.824Z,19.84
2018-08-31T04:45:39.532Z,20.05
2018-08-31T04:48:08.429Z,20.23
2018-08-31T04:50:37.254Z,20.49
2018-08-31T04:53:06.150Z,20.53
2018-08-31T04:55:35.012Z,20.29
2018-08-31T04:58:03.793Z,20.58
2018-08-31T05:00:32.727Z,20.84
2018-08-31T05:03:01.509Z,21.00
2018-08-31T05:05:30.390Z,21.44
2018-08-31T05:07:59.119Z,21.48
2018-08-31T05:10:27.992Z,21.53
2018-08-31T05:12:56.840Z,21.79
2018-08-31T05:15:25.592Z,22.02
2018-08-31T05:17:54.494Z,22.20
2018-08-31T05:20:23.651Z,22.12
2018-08-31T05:22:52.620Z,21.83
2018-08-31T05:25:21.360Z,21.62
2018-08-31T05:27:50.143Z,21.98
2018-08-31T05:30:18.956Z,21.88
2018-08-31T05:32:47.759Z,21.43
2018-08-31T05:35:17.411Z,21.66
2018-08-31T05:37:46.560Z,22.34
2018-08-31T05:40:15.884Z,22.79
2018-08-31T05:42:44.821Z,23.14
2018-08-31T05:45:13.636Z,23.70
2018-08-31T05:47:42.495Z,24.39
2018-08-31T05:50:11.533Z,24.48
2018-08-31T05:52:40.399Z,24.46
2018-08-31T05:55:09.303Z,24.99
2018-08-31T05:57:38.177Z,25.26
2018-08-31T06:00:07.294Z,25.11
2018-08-31T06:02:36.518Z,24.99
2018-08-31T06:05:05.241Z,25.43
2018-08-31T06:07:33.953Z,25.43
2018-08-31T06:10:02.753Z,25.32
2018-08-31T06:12:31.635Z,25.67
2018-08-31T06:15:00.394Z,25.45
2018-08-31T06:17:29.247Z,25.39
2018-08-31T06:19:58.025Z,25.66
2018-08-31T06:22:26.946Z,25.51
2018-08-31T06:24:55.928Z,25.32
2018-08-31T06:27:24.931Z,25.64
2018-08-31T06:29:53.770Z,25.97
2018-08-31T06:32:22.815Z,26.16
2018-08-31T06:34:51.999Z,26.80
2018-08-31T06:37:20.811Z,26.94
2018-08-31T06:39:49.808Z,26.76
2018-08-31T06:42:18.620Z,27.12
2018-08-31T06:44:47.508Z,27.15
2018-08-31T06:47:16.269Z,26.40
2018-08-31T06:49:44.996Z,26.39
2018-08-31T06:52:13.659Z,26.96
2018-08-31T06:54:42.418Z,26.79
2018-08-31T06:57:11.498Z,26.74
2018-08-31T06:59:40.170Z,26.85
2018-08-31T07:02:08.940Z,27.00
2018-08-31T07:04:38.426Z,26.88
2018-08-31T07:07:07.223Z,26.97
2018-08-31T07:09:35.942Z,27.02
2018-08-31T07:12:04.834Z,26.85
2018-08-31T07:14:33.563Z,27.08
2018-08-31T07:17:02.470Z,27.94
2018-08-31T07:19:31.527Z,28.22
2018-08-31T07:22:00.362Z,28.32
2018-08-31T07:24:29.362Z,28.01
2018-08-31T07:26:58.216Z,28.52
2018-08-31T07:29:26.994Z,28.72
2018-08-31T07:31:55.733Z,28.82
2018-08-31T07:34:24.479Z,28.42
2018-08-31T07:36:53.190Z,28.04
2018-08-31T07:39:21.863Z,28.30
2018-08-31T07:41:50.574Z,28.18
2018-08-31T07:44:19.348Z,27.73
2018-08-31T07:46:48.183Z,28.80
2018-08-31T07:49:17.038Z,29.44
2018-08-31T07:51:45.904Z,29.31
2018-08-31T07:54:14.752Z,29.35
2018-08-31T07:56:43.768Z,29.45
2018-08-31T07:59:12.436Z,29.44
2018-08-31T08:01:41.248Z,29.32
2018-08-31T08:04:10.049Z,29.09
2018-08-31T08:06:38.863Z,29.58
2018-08-31T08:09:09.136Z,29.41
2018-08-31T08:11:37.905Z,29.94
2018-08-31T08:14:06.722Z,30.08
2018-08-31T08:16:35.547Z,30.24
2018-08-31T08:19:04.766Z,30.02
2018-08-31T08:21:33.539Z,29.73
2018-08-31T08:24:02.296Z,29.82
2018-08-31T08:26:31.110Z,29.88
2018-08-31T08:28:59.874Z,30.02
2018-08-31T08:31:28.563Z,29.93
2018-08-31T08:33:57.410Z,31.39
2018-08-31T08:36:26.223Z,31.25
2018-08-31T08:38:54.929Z,30.57
2018-08-31T08:41:23.668Z,30.83
2018-08-31T08:43:52.478Z,30.57
2018-08-31T08:46:21.263Z,30.83
2018-08-31T08:48:50.193Z,31.49
2018-08-31T08:51:18.860Z,32.17
2018-08-31T08:53:47.645Z,31.44
2018-08-31T08:56:16.410Z,32.02
2018-08-31T08:58:45.404Z,31.84
2018-08-31T09:01:14.563Z,32.37
2018-08-31T09:03:43.709Z,32.31
2018-08-31T09:06:12.561Z,32.22
2018-08-31T09:08:41.280Z,31.95
2018-08-31T09:11:10.080Z,32.27
2018-08-31T09:13:38.932Z,31.24
2018-08-31T09:16:13.814Z,31.77
2018-08-31T09:18:42.531Z,32.42
2018-08-31T09:21:11.466Z,32.48
2018-08-31T09:23:40.151Z,32.67
2018-08-31T09:26:11.419Z,32.97
2018-08-31T09:28:40.174Z,32.92
2018-08-31T09:31:12.288Z,33.60
2018-08-31T09:33:41.193Z,32.88
2018-08-31T09:36:10.921Z,33.14
2018-08-31T09:38:39.716Z,33.81
2018-08-31T09:41:08.802Z,32.92
2018-08-31T09:43:37.610Z,32.80
2018-08-31T09:46:06.390Z,32.70
2018-08-31T09:48:35.118Z,32.27
2018-08-31T09:51:03.879Z,32.43
2018-08-31T09:53:32.936Z,33.14
2018-08-31T09:56:01.606Z,33.34
2018-08-31T09:58:30.338Z,33.24
2018-08-31T10:01:04.150Z,33.70
2018-08-31T10:03:33.263Z,32.76
2018-08-31T10:06:02.030Z,33.07
2018-08-31T10:08:30.897Z,33.37
2018-08-31T10:10:59.683Z,32.78
2018-08-31T10:13:28.527Z,33.17
2018-08-31T10:15:57.414Z,33.02
2018-08-31T10:18:26.599Z,33.25
2018-08-31T10:20:55.394Z,33.79
2018-08-31T10:23:24.261Z,33.73
2018-08-31T10:25:53.129Z,33.51
2018-08-31T10:28:21.860Z,33.71
2018-08-31T10:30:50.711Z,33.81
2018-08-31T10:33:19.489Z,34.12
2018-08-31T10:35:48.168Z,34.80
2018-08-31T10:38:17.069Z,35.06
2018-08-31T10:40:45.855Z,34.66
2018-08-31T10:43:14.662Z,34.63
2018-08-31T10:45:43.373Z,33.81
2018-08-31T10:48:12.118Z,34.11
2018-08-31T10:50:40.882Z,34.45
2018-08-31T10:53:09.683Z,34.45
2018-08-31T10:55:38.363Z,33.93
2018-08-31T10:58:07.467Z,34.03
2018-08-31T11:00:36.451Z,34.57
2018-08-31T11:03:05.410Z,33.72
2018-08-31T11:05:34.195Z,33.99
2018-08-31T11:08:02.983Z,34.00
2018-08-31T11:10:31.653Z,33.94
2018-08-31T11:13:00.363Z,32.33
2018-08-31T11:15:29.236Z,34.24
2018-08-31T11:17:57.964Z,34.22
2018-08-31T11:20:26.822Z,35.15
2018-08-31T11:22:55.635Z,35.01
2018-08-31T11:25:24.498Z,34.69
2018-08-31T11:27:53.338Z,34.87
2018-08-31T11:30:22.103Z,35.44
2018-08-31T11:32:51.071Z,36.00
2018-08-31T11:35:19.935Z,34.83
2018-08-31T11:37:48.666Z,34.28
2018-08-31T11:40:17.352Z,34.40
2018-08-31T11:42:46.166Z,34.25
2018-08-31T11:45:15.102Z,34.31
2018-08-31T11:47:43.839Z,33.91
2018-08-31T11:50:12.639Z,34.10
2018-08-31T11:52:41.305Z,34.52
2018-08-31T11:55:10.051Z,34.49
2018-08-31T11:57:38.667Z,34.48
2018-08-31T12:00:07.638Z,34.64
2018-08-31T12:02:36.439Z,35.57
2018-08-31T12:05:05.309Z,35.59
2018-08-31T12:07:34.090Z,34.64
2018-08-31T12:10:02.955Z,34.68
2018-08-31T12:12:32.507Z,33.82
2018-08-31T12:15:01.221Z,33.57
2018-08-31T12:17:30.665Z,33.02
2018-08-31T12:19:59.363Z,33.18
2018-08-31T12:22:28.134Z,33.65
2018-08-31T12:24:56.790Z,33.59
2018-08-31T12:27:25.576Z,34.07
2018-08-31T12:29:54.493Z,33.12
2018-08-31T12:32:23.269Z,33.30
2018-08-31T12:34:51.958Z,33.38
2018-08-31T12:37:21.330Z,33.38
2018-08-31T12:39:50.254Z,33.40
2018-08-31T12:42:19.016Z,33.37
2018-08-31T12:44:47.752Z,33.64
2018-08-31T12:47:16.544Z,33.49
2018-08-31T12:49:45.410Z,33.62
2018-08-31T12:52:14.198Z,32.89
2018-08-31T12:54:42.974Z,31.88
2018-08-31T12:57:11.659Z,32.32
2018-08-31T12:59:44.749Z,32.76
2018-08-31T13:02:13.538Z,32.71
2018-08-31T13:04:42.278Z,32.31
2018-08-31T13:07:11.000Z,28.31
2018-08-31T13:09:39.739Z,32.60
2018-08-31T13:12:08.426Z,32.39
2018-08-31T13:14:37.111Z,31.72
2018-08-31T13:17:06.027Z,31.41
2018-08-31T13:19:34.687Z,31.32
2018-08-31T13:22:03.557Z,31.28
2018-08-31T13:24:32.387Z,31.33
2018-08-31T13:27:01.199Z,31.26
2018-08-31T13:29:29.966Z,31.13
2018-08-31T13:31:58.785Z,31.10
2018-08-31T13:34:27.484Z,30.89
2018-08-31T13:36:56.317Z,30.97
2018-08-31T13:39:25.067Z,31.00
2018-08-31T13:41:53.785Z,30.81
2018-08-31T13:44:22.601Z,31.04
2018-08-31T13:46:51.424Z,30.90
2018-08-31T13:49:20.139Z,30.72
2018-08-31T13:51:48.931Z,30.73
2018-08-31T13:54:17.601Z,30.90
2018-08-31T13:56:46.355Z,30.96
2018-08-31T13:59:15.040Z,30.86
2018-08-31T14:01:43.891Z,30.71
2018-08-31T14:04:12.885Z,30.75
2018-08-31T14:06:41.580Z,30.74
2018-08-31T14:09:10.403Z,30.77
2018-08-31T14:11:39.130Z,30.63
2018-08-31T14:14:07.856Z,30.48
2018-08-31T14:16:37.440Z,30.42
2018-08-31T14:19:07.931Z,30.54
2018-08-31T14:21:36.674Z,30.56
2018-08-31T14:24:05.857Z,29.89
2018-08-31T14:26:34.718Z,30.59
2018-08-31T14:29:03.414Z,30.46
2018-08-31T14:31:32.127Z,30.36
2018-08-31T14:34:01.031Z,30.37
2018-08-31T14:36:29.840Z,30.33
2018-08-31T14:38:58.630Z,30.27
2018-08-31T14:41:27.350Z,30.29
2018-08-31T14:43:56.179Z,30.27
2018-08-31T14:46:24.955Z,30.39
2018-08-31T14:48:53.713Z,30.36
2018-08-31T14:51:22.435Z,30.23
2018-08-31T14:53:51.145Z,30.24
2018-08-31T14:56:19.930Z,30.07
2018-08-31T14:58:51.102Z,30.08
2018-08-31T15:01:20.039Z,30.07
2018-08-31T15:03:48.882Z,30.09
2018-08-31T15:06:21.424Z,30.14
2018-08-31T15:08:50.807Z,29.96
2018-08-31T15:11:19.611Z,29.85
2018-08-31T15:13:48.373Z,29.86
2018-08-31T15:16:17.173Z,29.87
2018-08-31T15:18:45.859Z,29.84
2018-08-31T15:21:14.537Z,29.72
2018-08-31T15:23:43.358Z,29.58
2018-08-31T15:26:12.079Z,29.56
2018-08-31T15:28:40.775Z,29.52
2018-08-31T15:31:09.562Z,29.44
2018-08-31T15:33:38.283Z,29.39
2018-08-31T15:36:06.927Z,29.41
2018-08-31T15:38:35.753Z,29.38
2018-08-31T15:41:04.635Z,29.22
2018-08-31T15:43:33.298Z,29.14
2018-08-31T15:46:02.018Z,29.12
2018-08-31T15:48:30.682Z,29.12
2018-08-31T15:50:59.463Z,29.06
2018-08-31T15:53:28.203Z,29.01
2018-08-31T15:55:56.895Z,28.97
2018-08-31T15:58:25.732Z,28.91
2018-08-31T16:00:54.444Z,28.89
2018-08-31T16:03:23.130Z,28.88
2018-08-31T16:05:52.003Z,28.87
2018-08-31T16:08:20.822Z,28.84
2018-08-31T16:10:49.578Z,28.86
2018-08-31T16:13:18.346Z,28.81
2018-08-31T16:15:47.046Z,28.83
2018-08-31T16:18:15.794Z,28.87
2018-08-31T16:20:44.558Z,28.78
2018-08-31T16:23:13.323Z,28.57
2018-08-31T16:25:42.233Z,28.42
2018-08-31T16:28:10.989Z,28.41
2018-08-31T16:30:39.822Z,28.37
2018-08-31T16:33:08.570Z,28.35
2018-08-31T16:35:37.390Z,28.25
2018-08-31T16:38:06.186Z,28.17
2018-08-31T16:40:35.022Z,28.01
2018-08-31T16:43:03.802Z,27.89
2018-08-31T16:45:32.638Z,27.71
2018-08-31T16:48:01.542Z,27.66
2018-08-31T16:50:30.214Z,27.57
2018-08-31T16:52:58.960Z,27.46
2018-08-31T16:55:42.246Z,27.42
2018-08-31T16:58:10.958Z,27.35
2018-08-31T17:00:39.711Z,27.28
2018-08-31T17:03:08.526Z,27.21
2018-08-31T17:05:37.377Z,27.18
2018-08-31T17:08:06.069Z,27.14
2018-08-31T17:10:34.820Z,27.10
2018-08-31T17:13:03.590Z,27.05
2018-08-31T17:15:32.287Z,26.99
2018-08-31T17:18:00.946Z,26.94
2018-08-31T17:20:29.808Z,26.88
2018-08-31T17:22:58.494Z,26.83
2018-08-31T17:25:27.198Z,26.75
2018-08-31T17:28:01.180Z,26.67
2018-08-31T17:30:29.901Z,26.61
2018-08-31T17:33:04.099Z,26.56
2018-08-31T17:35:38.038Z,26.52
2018-08-31T17:38:06.727Z,26.35
2018-08-31T17:40:35.426Z,26.24
2018-08-31T17:43:18.686Z,26.11
2018-08-31T17:45:47.496Z,26.02
2018-08-31T17:48:16.301Z,25.99
2018-08-31T17:50:45.008Z,25.98
2018-08-31T17:53:13.857Z,25.95
2018-08-31T17:55:42.611Z,25.88
2018-08-31T17:58:11.397Z,25.85
2018-08-31T18:00:40.143Z,25.82
2018-08-31T18:03:08.835Z,25.78
2018-08-31T18:05:37.514Z,25.77
2018-08-31T18:08:06.226Z,25.73
2018-08-31T18:10:34.879Z,25.71
2018-08-31T18:13:03.678Z,25.69
2018-08-31T18:15:32.497Z,25.64
2018-08-31T18:18:01.178Z,25.62
2018-08-31T18:20:29.863Z,25.57
2018-08-31T18:22:58.611Z,25.52
2018-08-31T18:25:27.395Z,25.46
2018-08-31T18:27:56.170Z,25.39
2018-08-31T18:30:24.878Z,25.31
2018-08-31T18:32:53.585Z,25.22
2018-08-31T18:35:22.401Z,25.19
2018-08-31T18:37:51.101Z,25.12
2018-08-31T18:40:19.834Z,25.04
2018-08-31T18:42:48.739Z,25.00
2018-08-31T18:45:17.459Z,24.97
2018-08-31T18:47:46.158Z,24.95
2018-08-31T18:50:15.034Z,24.88
2018-08-31T18:52:43.863Z,24.75
2018-08-31T18:55:12.539Z,24.77
2018-08-31T18:57:41.416Z,24.71
2018-08-31T19:00:12.798Z,24.68
2018-08-31T19:02:41.526Z,24.63
2018-08-31T19:05:10.274Z,24.61
2018-08-31T19:07:39.222Z,24.57
2018-08-31T19:10:08.050Z,24.53
2018-08-31T19:12:36.917Z,24.50
2018-08-31T19:15:05.816Z,24.46
2018-08-31T19:17:36.522Z,24.42
2018-08-31T19:20:05.249Z,24.40
2018-08-31T19:22:33.941Z,24.38
2018-08-31T19:25:02.675Z,24.32
2018-08-31T19:27:31.463Z,24.22
2018-08-31T19:30:00.297Z,24.11
2018-08-31T19:32:29.105Z,23.90
2018-08-31T19:34:57.852Z,23.78
2018-08-31T19:37:26.531Z,23.71
2018-08-31T19:39:55.378Z,23.61
2018-08-31T19:42:24.444Z,23.51
2018-08-31T19:44:53.181Z,23.41
2018-08-31T19:47:21.945Z,23.36
2018-08-31T19:49:51.401Z,23.29
2018-08-31T19:52:20.094Z,23.22
2018-08-31T19:54:48.775Z,23.20
2018-08-31T19:57:17.492Z,23.11
2018-08-31T19:59:46.118Z,23.08
2018-08-31T20:02:14.845Z,23.03
2018-08-31T20:04:43.658Z,23.01
2018-08-31T20:07:12.457Z,22.98
2018-08-31T20:09:41.175Z,22.96
2018-08-31T20:12:09.904Z,22.93
2018-08-31T20:14:38.629Z,22.91
2018-08-31T20:17:07.403Z,22.88
2018-08-31T20:19:36.261Z,22.89
2018-08-31T20:22:07.732Z,22.90
2018-08-31T20:24:36.442Z,22.92
2018-08-31T20:27:05.202Z,22.90
2018-08-31T20:29:34.016Z,22.88
2018-08-31T20:32:02.933Z,22.83
2018-08-31T20:34:31.676Z,22.77
2018-08-31T20:37:00.425Z,22.71
2018-08-31T20:39:29.136Z,22.67
2018-08-31T20:41:57.804Z,22.65
2018-08-31T20:44:26.515Z,22.68
2018-08-31T20:46:55.350Z,22.66
2018-08-31T20:49:24.170Z,22.65
2018-08-31T20:51:52.890Z,22.63
2018-08-31T20:54:21.592Z,22.62
2018-08-31T20:56:50.255Z,22.59
2018-08-31T20:59:18.925Z,22.58
2018-08-31T21:01:47.595Z,22.57
2018-08-31T21:04:16.281Z,22.55
2018-08-31T21:06:45.092Z,22.56
2018-08-31T21:09:13.794Z,22.57
2018-08-31T21:11:42.527Z,22.60
2018-08-31T21:14:11.260Z,22.55
2018-08-31T21:16:40.057Z,22.52
2018-08-31T21:19:08.940Z,22.52
2018-08-31T21:21:37.728Z,22.50
2018-08-31T21:24:06.586Z,22.46
2018-08-31T21:26:35.362Z,22.41
2018-08-31T21:29:04.105Z,22.37
2018-08-31T21:31:32.861Z,22.31
2018-08-31T21:34:01.629Z,22.27
2018-08-31T21:36:30.447Z,22.24
2018-08-31T21:38:59.196Z,22.15
2018-08-31T21:41:27.927Z,22.12
2018-08-31T21:43:56.776Z,22.06
2018-08-31T21:46:25.537Z,22.01
2018-08-31T21:48:54.434Z,22.01
2018-08-31T21:51:23.249Z,22.00
2018-08-31T21:53:52.077Z,21.97
2018-08-31T21:56:20.793Z,21.94
2018-08-31T21:58:49.782Z,21.84
2018-08-31T22:01:23.674Z,21.79
2018-08-31T22:03:52.512Z,21.74
2018-08-31T22:06:21.357Z,21.69
2018-08-31T22:08:50.075Z,21.64
2018-08-31T22:11:18.810Z,21.60
2018-08-31T22:13:47.621Z,21.51
2018-08-31T22:16:16.568Z,21.39
2018-08-31T22:18:45.367Z,21.40
2018-08-31T22:21:14.269Z,21.37
2018-08-31T22:23:43.072Z,21.34
2018-08-31T22:26:12.122Z,21.31
2018-08-31T22:28:41.004Z,21.25
2018-08-31T22:31:09.788Z,21.20
2018-08-31T22:33:38.603Z,21.12
2018-08-31T22:36:07.370Z,21.08
2018-08-31T22:38:36.110Z,21.07
2018-08-31T22:41:04.920Z,21.03
2018-08-31T22:43:39.001Z,20.95
2018-08-31T22:46:07.700Z,20.92
2018-08-31T22:48:36.427Z,20.97
2018-08-31T22:51:05.177Z,20.99
2018-08-31T22:53:33.926Z,20.97
2018-08-31T22:56:02.712Z,20.96
2018-08-31T22:58:31.619Z,20.97
2018-08-31T23:01:00.472Z,20.98
2018-08-31T23:03:29.225Z,21.00
2018-08-31T23:05:58.074Z,21.00
2018-08-31T23:08:26.853Z,21.02
2018-08-31T23:10:55.699Z,21.07
2018-08-31T23:13:24.628Z,21.08
2018-08-31T23:15:53.578Z,21.09
2018-08-31T23:18:22.376Z,21.10
2018-08-31T23:20:51.315Z,21.13
2018-08-31T23:23:25.155Z,21.01
2018-08-31T23:25:53.828Z,21.00
2018-08-31T23:28:22.844Z,21.03
2018-08-31T23:30:51.623Z,21.03
2018-08-31T23:33:20.476Z,20.99
2018-08-31T23:35:49.201Z,20.88
2018-08-31T23:38:17.874Z,20.78
2018-08-31T23:40:46.555Z,20.77
2018-08-31T23:43:15.249Z,20.72
2018-08-31T23:45:44.056Z,20.72
2018-08-31T23:48:12.883Z,20.71
2018-08-31T23:50:41.643Z,20.59
2018-08-31T23:53:10.395Z,20.40
2018-08-31T23:55:39.115Z,20.31
2018-08-31T23:58:07.859Z,20.27
